createdAt,value
2023-02-06T00:00:50.711Z,2.59
2023-02-06T00:01:50.669Z,2.51
2023-02-06T00:02:50.610Z,2.61
2023-02-06T00:03:50.581Z,2.53
2023-02-06T00:04:50.539Z,2.53
2023-02-06T00:05:50.516Z,2.59
2023-02-06T00:06:50.436Z,2.50
2023-02-06T00:07:50.382Z,2.58
2023-02-06T00:08:50.336Z,2.62
2023-02-06T00:09:50.298Z,2.45
2023-02-06T00:10:50.254Z,2.63
2023-02-06T00:11:50.197Z,2.45
2023-02-06T00:12:50.169Z,2.63
2023-02-06T00:13:50.108Z,2.45
2023-02-06T00:14:50.058Z,2.59
2023-02-06T00:15:50.016Z,2.47
2023-02-06T00:16:49.964Z,2.58
2023-02-06T00:17:49.932Z,2.51
2023-02-06T00:18:49.898Z,2.37
2023-02-06T00:19:49.830Z,2.41
2023-02-06T00:20:49.784Z,2.45
2023-02-06T00:21:49.737Z,2.50
2023-02-06T00:22:49.693Z,2.53
2023-02-06T00:23:49.650Z,2.45
2023-02-06T00:24:49.610Z,2.56
2023-02-06T00:25:49.564Z,2.45
2023-02-06T00:26:49.509Z,2.50
2023-02-06T00:27:49.471Z,2.51
2023-02-06T00:28:49.422Z,2.44
2023-02-06T00:29:49.370Z,2.44
2023-02-06T00:30:49.430Z,2.25
2023-02-06T00:31:49.308Z,2.32
2023-02-06T00:32:49.305Z,2.26
2023-02-06T00:33:49.209Z,2.22
2023-02-06T00:34:49.141Z,2.25
2023-02-06T00:35:49.100Z,2.15
2023-02-06T00:36:49.065Z,2.15
2023-02-06T00:37:49.006Z,2.18
2023-02-06T00:38:48.968Z,2.15
2023-02-06T00:39:48.917Z,2.07
2023-02-06T00:40:48.868Z,2.12
2023-02-06T00:41:48.821Z,2.07
2023-02-06T00:42:48.786Z,2.09
2023-02-06T00:43:48.744Z,2.08
2023-02-06T00:44:48.681Z,2.11
2023-02-06T00:45:48.642Z,2.08
2023-02-06T00:46:48.616Z,2.02
2023-02-06T00:47:48.545Z,2.05
2023-02-06T00:48:48.503Z,2.09
2023-02-06T00:49:48.478Z,2.08
2023-02-06T00:50:48.410Z,2.08
2023-02-06T00:51:48.365Z,2.11
2023-02-06T00:52:48.312Z,2.07
2023-02-06T00:53:50.819Z,2.00
2023-02-06T00:54:48.223Z,1.95
2023-02-06T00:55:48.194Z,2.07
2023-02-06T00:56:48.142Z,1.92
2023-02-06T00:57:48.088Z,2.11
2023-02-06T00:58:48.037Z,2.09
2023-02-06T00:59:47.991Z,1.98
2023-02-06T01:00:47.946Z,1.98
2023-02-06T01:01:47.921Z,2.02
2023-02-06T01:02:47.888Z,1.93
2023-02-06T01:03:47.810Z,1.92
2023-02-06T01:04:47.760Z,1.92
2023-02-06T01:05:47.721Z,1.90
2023-02-06T01:06:47.669Z,1.86
2023-02-06T01:07:47.620Z,2.01
2023-02-06T01:08:47.577Z,2.04
2023-02-06T01:09:47.526Z,2.05
2023-02-06T01:10:47.474Z,1.93
2023-02-06T01:11:47.436Z,1.98
2023-02-06T01:12:47.389Z,2.12
2023-02-06T01:13:47.349Z,1.95
2023-02-06T01:14:47.292Z,2.07
2023-02-06T01:15:48.462Z,2.00
2023-02-06T01:16:47.195Z,2.02
2023-02-06T01:17:47.154Z,1.89
2023-02-06T01:18:47.124Z,1.88
2023-02-06T01:19:47.070Z,1.88
2023-02-06T01:20:47.045Z,1.88
2023-02-06T01:21:46.973Z,1.93
2023-02-06T01:22:46.920Z,1.92
2023-02-06T01:23:46.877Z,1.90
2023-02-06T01:24:46.826Z,1.93
2023-02-06T01:25:46.781Z,2.01
2023-02-06T01:26:46.743Z,2.04
2023-02-06T01:27:46.708Z,1.93
2023-02-06T01:28:46.643Z,2.04
2023-02-06T01:29:46.598Z,1.90
2023-02-06T01:30:46.593Z,1.98
2023-02-06T01:31:46.562Z,1.82
2023-02-06T01:32:46.465Z,2.11
2023-02-06T01:33:46.413Z,1.88
2023-02-06T01:34:46.361Z,2.02
2023-02-06T01:35:46.317Z,2.00
2023-02-06T01:36:46.268Z,2.02
2023-02-06T01:37:46.228Z,1.92
2023-02-06T01:38:46.202Z,1.92
2023-02-06T01:39:46.144Z,1.86
2023-02-06T01:40:46.083Z,1.90
2023-02-06T01:41:46.045Z,1.81
2023-02-06T01:42:46.008Z,1.83
2023-02-06T01:43:45.953Z,1.72
2023-02-06T01:44:45.911Z,1.79
2023-02-06T01:45:45.869Z,1.75
2023-02-06T01:46:45.832Z,1.65
2023-02-06T01:47:45.772Z,1.67
2023-02-06T01:48:45.713Z,1.68
2023-02-06T01:49:45.669Z,1.75
2023-02-06T01:50:45.630Z,1.75
2023-02-06T01:51:45.575Z,1.68
2023-02-06T01:52:45.525Z,1.68
2023-02-06T01:53:45.487Z,1.64
2023-02-06T01:54:45.436Z,1.64
2023-02-06T01:55:45.393Z,1.81
2023-02-06T01:56:45.352Z,1.82
2023-02-06T01:57:45.301Z,1.79
2023-02-06T01:58:45.251Z,1.85
2023-02-06T01:59:45.210Z,1.83
2023-02-06T02:00:45.215Z,1.71
2023-02-06T02:01:45.165Z,1.71
2023-02-06T02:02:45.094Z,1.85
2023-02-06T02:03:45.041Z,1.74
2023-02-06T02:04:44.972Z,1.60
2023-02-06T02:05:44.932Z,1.60
2023-02-06T02:06:44.879Z,1.47
2023-02-06T02:07:44.834Z,1.52
2023-02-06T02:08:44.796Z,1.49
2023-02-06T02:09:44.749Z,1.52
2023-02-06T02:10:44.699Z,1.56
2023-02-06T02:11:44.652Z,1.64
2023-02-06T02:12:44.613Z,1.63
2023-02-06T02:13:44.559Z,1.46
2023-02-06T02:14:44.510Z,1.60
2023-02-06T02:15:44.484Z,1.49
2023-02-06T02:16:44.423Z,1.57
2023-02-06T02:17:44.383Z,1.47
2023-02-06T02:18:44.326Z,1.50
2023-02-06T02:19:44.282Z,1.46
2023-02-06T02:20:44.237Z,1.50
2023-02-06T02:21:44.201Z,1.36
2023-02-06T02:22:44.140Z,1.44
2023-02-06T02:23:44.096Z,1.42
2023-02-06T02:24:44.060Z,1.47
2023-02-06T02:25:44.006Z,1.56
2023-02-06T02:26:43.969Z,1.56
2023-02-06T02:27:43.989Z,1.60
2023-02-06T02:28:43.869Z,1.52
2023-02-06T02:29:43.820Z,1.61
2023-02-06T02:30:43.839Z,1.56
2023-02-06T02:31:43.778Z,1.61
2023-02-06T02:32:43.696Z,1.68
2023-02-06T02:33:43.632Z,1.74
2023-02-06T02:34:43.587Z,1.68
2023-02-06T02:35:43.538Z,1.67
2023-02-06T02:36:43.490Z,1.75
2023-02-06T02:37:43.456Z,1.75
2023-02-06T02:38:43.412Z,1.77
2023-02-06T02:39:43.354Z,1.77
2023-02-06T02:40:43.306Z,1.74
2023-02-06T02:41:43.264Z,1.81
2023-02-06T02:42:43.224Z,1.82
2023-02-06T02:43:43.170Z,1.72
2023-02-06T02:44:43.132Z,1.79
2023-02-06T02:45:43.111Z,1.71
2023-02-06T02:46:43.036Z,1.72
2023-02-06T02:47:42.986Z,1.75
2023-02-06T02:48:42.928Z,1.79
2023-02-06T02:49:42.901Z,1.68
2023-02-06T02:50:42.837Z,1.72
2023-02-06T02:51:42.791Z,1.71
2023-02-06T02:52:42.746Z,1.64
2023-02-06T02:53:42.693Z,1.60
2023-02-06T02:54:42.648Z,1.68
2023-02-06T02:55:42.620Z,1.74
2023-02-06T02:56:42.650Z,1.71
2023-02-06T02:57:42.509Z,1.72
2023-02-06T02:58:42.465Z,1.60
2023-02-06T02:59:42.420Z,1.65
2023-02-06T03:00:42.407Z,1.70
2023-02-06T03:01:42.336Z,1.67
2023-02-06T03:02:42.278Z,1.57
2023-02-06T03:03:42.232Z,1.53
2023-02-06T03:04:42.197Z,1.60
2023-02-06T03:05:42.146Z,1.63
2023-02-06T03:06:42.087Z,1.54
2023-02-06T03:07:42.069Z,1.54
2023-02-06T03:08:41.995Z,1.60
2023-02-06T03:09:43.250Z,1.56
2023-02-06T03:10:41.918Z,1.70
2023-02-06T03:11:41.852Z,1.70
2023-02-06T03:12:41.815Z,1.70
2023-02-06T03:13:41.771Z,1.77
2023-02-06T03:14:41.720Z,1.74
2023-02-06T03:15:41.666Z,1.85
2023-02-06T03:16:41.711Z,1.82
2023-02-06T03:17:41.586Z,1.75
2023-02-06T03:18:41.534Z,1.74
2023-02-06T03:19:41.490Z,1.65
2023-02-06T03:20:41.436Z,1.68
2023-02-06T03:21:41.386Z,1.70
2023-02-06T03:22:41.348Z,1.74
2023-02-06T03:23:41.313Z,1.75
2023-02-06T03:24:41.262Z,1.75
2023-02-06T03:25:41.205Z,1.68
2023-02-06T03:26:41.158Z,1.74
2023-02-06T03:27:41.108Z,1.77
2023-02-06T03:28:41.064Z,1.63
2023-02-06T03:29:41.029Z,1.74
2023-02-06T03:30:41.008Z,1.72
2023-02-06T03:31:40.953Z,1.70
2023-02-06T03:32:40.877Z,1.74
2023-02-06T03:33:40.831Z,1.63
2023-02-06T03:34:40.786Z,1.64
2023-02-06T03:35:40.752Z,1.53
2023-02-06T03:36:40.694Z,1.53
2023-02-06T03:37:40.642Z,1.54
2023-02-06T03:38:40.607Z,1.56
2023-02-06T03:39:40.555Z,1.47
2023-02-06T03:40:40.509Z,1.56
2023-02-06T03:41:40.468Z,1.39
2023-02-06T03:42:40.416Z,1.43
2023-02-06T03:43:40.369Z,1.35
2023-02-06T03:44:40.336Z,1.32
2023-02-06T03:45:40.431Z,1.43
2023-02-06T03:46:40.236Z,1.39
2023-02-06T03:47:40.177Z,1.31
2023-02-06T03:48:40.155Z,1.28
2023-02-06T03:49:40.084Z,1.32
2023-02-06T03:50:40.060Z,1.11
2023-02-06T03:51:39.991Z,1.08
2023-02-06T03:52:39.947Z,1.18
2023-02-06T03:53:39.898Z,0.99
2023-02-06T03:54:39.854Z,0.89
2023-02-06T03:55:39.807Z,0.86
2023-02-06T03:56:39.775Z,0.78
2023-02-06T03:57:39.722Z,0.84
2023-02-06T03:58:39.669Z,0.72
2023-02-06T03:59:39.648Z,0.74
2023-02-06T04:00:39.582Z,0.78
2023-02-06T04:01:39.547Z,0.71
2023-02-06T04:02:39.538Z,0.81
2023-02-06T04:03:39.434Z,0.82
2023-02-06T04:04:39.393Z,0.89
2023-02-06T04:05:39.365Z,0.88
2023-02-06T04:06:39.301Z,0.88
2023-02-06T04:07:39.253Z,0.80
2023-02-06T04:08:39.206Z,0.77
2023-02-06T04:09:39.156Z,0.74
2023-02-06T04:10:39.120Z,0.70
2023-02-06T04:11:39.089Z,0.64
2023-02-06T04:12:39.018Z,0.56
2023-02-06T04:13:38.968Z,0.49
2023-02-06T04:14:38.930Z,0.43
2023-02-06T04:15:38.875Z,0.40
2023-02-06T04:16:38.888Z,0.25
2023-02-06T04:17:53.495Z,0.33
2023-02-06T04:18:38.738Z,0.23
2023-02-06T04:19:38.700Z,0.23
2023-02-06T04:20:38.655Z,0.23
2023-02-06T04:21:38.596Z,0.22
2023-02-06T04:22:38.553Z,0.23
2023-02-06T04:23:38.517Z,0.23
2023-02-06T04:24:38.458Z,0.20
2023-02-06T04:25:38.696Z,0.20
2023-02-06T04:26:38.363Z,0.17
2023-02-06T04:27:38.324Z,0.12
2023-02-06T04:28:38.270Z,0.13
2023-02-06T04:29:38.234Z,0.08
2023-02-06T04:30:38.204Z,0.12
2023-02-06T04:31:38.167Z,0.05
2023-02-06T04:32:38.082Z,0.05
2023-02-06T04:33:38.030Z,0.07
2023-02-06T04:34:37.994Z,0.02
2023-02-06T04:35:38.196Z,0.10
2023-02-06T04:36:37.892Z,-0.06
2023-02-06T04:37:37.851Z,-0.03
2023-02-06T04:38:37.802Z,-0.13
2023-02-06T04:39:37.759Z,-0.03
2023-02-06T04:40:37.714Z,-0.20
2023-02-06T04:41:37.668Z,-0.19
2023-02-06T04:42:37.617Z,-0.27
2023-02-06T04:43:37.569Z,-0.17
2023-02-06T04:44:37.519Z,-0.27
2023-02-06T04:45:37.790Z,-0.27
2023-02-06T04:46:37.427Z,-0.27
2023-02-06T04:47:37.384Z,-0.27
2023-02-06T04:48:37.336Z,-0.27
2023-02-06T04:49:37.282Z,-0.27
2023-02-06T04:50:37.236Z,-0.30
2023-02-06T04:51:37.192Z,-0.30
2023-02-06T04:52:37.142Z,-0.06
2023-02-06T04:53:37.118Z,-0.01
2023-02-06T04:54:37.060Z,-0.08
2023-02-06T04:55:37.344Z,-0.08
2023-02-06T04:56:36.956Z,-0.16
2023-02-06T04:57:36.904Z,-0.14
2023-02-06T04:58:36.876Z,-0.12
2023-02-06T04:59:36.829Z,-0.16
2023-02-06T05:00:38.725Z,-0.21
2023-02-06T05:01:36.764Z,-0.12
2023-02-06T05:02:36.714Z,-0.13
2023-02-06T05:03:36.624Z,-0.21
2023-02-06T05:04:36.575Z,-0.14
2023-02-06T05:05:36.748Z,-0.12
2023-02-06T05:06:36.480Z,-0.08
2023-02-06T05:07:36.439Z,-0.05
2023-02-06T05:08:36.404Z,-0.08
2023-02-06T05:09:36.336Z,-0.06
2023-02-06T05:10:36.292Z,-0.16
2023-02-06T05:11:36.247Z,-0.31
2023-02-06T05:12:36.196Z,-0.09
2023-02-06T05:13:36.151Z,-0.30
2023-02-06T05:14:36.114Z,-0.13
2023-02-06T05:15:36.454Z,-0.14
2023-02-06T05:16:45.434Z,-0.20
2023-02-06T05:17:35.972Z,-0.09
2023-02-06T05:18:35.918Z,-0.19
2023-02-06T05:19:35.861Z,-0.05
2023-02-06T05:20:35.826Z,-0.09
2023-02-06T05:21:35.778Z,-0.02
2023-02-06T05:22:35.720Z,-0.02
2023-02-06T05:23:35.673Z,-0.05
2023-02-06T05:24:35.633Z,-0.03
2023-02-06T05:25:35.885Z,-0.05
2023-02-06T05:26:35.535Z,-0.08
2023-02-06T05:27:35.495Z,0.02
2023-02-06T05:28:35.444Z,-0.05
2023-02-06T05:29:35.388Z,-0.06
2023-02-06T05:30:35.432Z,-0.01
2023-02-06T05:31:35.462Z,0.02
2023-02-06T05:32:35.250Z,0.02
2023-02-06T05:33:35.198Z,0.19
2023-02-06T05:34:35.156Z,0.19
2023-02-06T05:35:35.398Z,0.22
2023-02-06T05:36:35.061Z,0.45
2023-02-06T05:37:35.034Z,0.41
2023-02-06T05:38:34.973Z,0.53
2023-02-06T05:39:34.920Z,0.71
2023-02-06T05:40:34.875Z,0.86
2023-02-06T05:41:34.828Z,0.92
2023-02-06T05:42:34.786Z,0.95
2023-02-06T05:43:34.746Z,1.02
2023-02-06T05:44:34.689Z,0.93
2023-02-06T05:45:36.144Z,0.98
2023-02-06T05:46:34.616Z,0.90
2023-02-06T05:47:34.545Z,0.95
2023-02-06T05:48:34.503Z,0.86
2023-02-06T05:49:34.491Z,0.70
2023-02-06T05:50:34.414Z,0.81
2023-02-06T05:51:34.361Z,0.89
2023-02-06T05:52:34.342Z,1.00
2023-02-06T05:53:34.269Z,1.00
2023-02-06T05:54:34.225Z,0.99
2023-02-06T05:55:34.533Z,1.07
2023-02-06T05:56:34.132Z,1.06
2023-02-06T05:57:34.077Z,1.11
2023-02-06T05:58:34.040Z,1.17
2023-02-06T05:59:33.985Z,1.18
2023-02-06T06:00:33.941Z,1.06
2023-02-06T06:01:33.905Z,1.02
2023-02-06T06:02:33.859Z,0.90
2023-02-06T06:03:34.002Z,0.99
2023-02-06T06:04:33.790Z,0.78
2023-02-06T06:05:33.952Z,0.84
2023-02-06T06:06:33.662Z,0.80
2023-02-06T06:07:33.622Z,0.74
2023-02-06T06:08:33.569Z,0.74
2023-02-06T06:09:33.519Z,0.62
2023-02-06T06:10:33.478Z,0.71
2023-02-06T06:11:33.479Z,0.84
2023-02-06T06:12:33.382Z,0.74
2023-02-06T06:13:33.351Z,0.95
2023-02-06T06:14:33.291Z,0.95
2023-02-06T06:15:33.254Z,0.89
2023-02-06T06:16:33.195Z,1.00
2023-02-06T06:17:33.146Z,0.93
2023-02-06T06:18:33.108Z,1.00
2023-02-06T06:19:33.076Z,0.98
2023-02-06T06:20:33.004Z,0.99
2023-02-06T06:21:32.962Z,0.98
2023-02-06T06:22:32.915Z,1.07
2023-02-06T06:23:32.866Z,1.07
2023-02-06T06:24:32.872Z,1.11
2023-02-06T06:25:32.782Z,1.17
2023-02-06T06:26:32.727Z,1.13
2023-02-06T06:27:32.679Z,1.06
2023-02-06T06:28:32.638Z,1.00
2023-02-06T06:29:32.586Z,1.13
2023-02-06T06:30:33.785Z,1.06
2023-02-06T06:31:32.553Z,1.06
2023-02-06T06:32:32.456Z,1.00
2023-02-06T06:33:32.397Z,1.00
2023-02-06T06:34:32.355Z,0.86
2023-02-06T06:35:32.315Z,0.93
2023-02-06T06:36:32.274Z,0.78
2023-02-06T06:37:32.209Z,0.72
2023-02-06T06:38:32.169Z,0.71
2023-02-06T06:39:32.137Z,0.63
2023-02-06T06:40:32.226Z,0.67
2023-02-06T06:41:32.027Z,0.67
2023-02-06T06:42:32.002Z,0.70
2023-02-06T06:43:31.929Z,0.56
2023-02-06T06:44:31.901Z,0.56
2023-02-06T06:45:31.938Z,0.64
2023-02-06T06:46:31.788Z,0.60
2023-02-06T06:47:31.741Z,0.68
2023-02-06T06:48:31.700Z,0.62
2023-02-06T06:49:31.648Z,0.71
2023-02-06T06:50:31.618Z,0.67
2023-02-06T06:51:31.556Z,0.70
2023-02-06T06:52:31.519Z,0.71
2023-02-06T06:53:31.466Z,0.82
2023-02-06T06:54:31.420Z,0.89
2023-02-06T06:55:31.390Z,0.95
2023-02-06T06:56:31.330Z,0.95
2023-02-06T06:57:31.278Z,1.00
2023-02-06T06:58:31.230Z,1.02
2023-02-06T06:59:31.202Z,1.04
2023-02-06T07:00:31.140Z,1.11
2023-02-06T07:01:31.104Z,1.18
2023-02-06T07:02:31.049Z,1.18
2023-02-06T07:03:30.996Z,1.16
2023-02-06T07:04:30.979Z,1.26
2023-02-06T07:05:30.915Z,1.36
2023-02-06T07:06:30.872Z,1.31
2023-02-06T07:07:30.859Z,1.26
2023-02-06T07:08:30.776Z,1.36
2023-02-06T07:09:30.742Z,1.35
2023-02-06T07:10:30.745Z,1.39
2023-02-06T07:11:30.637Z,1.43
2023-02-06T07:12:30.586Z,1.36
2023-02-06T07:13:30.560Z,1.38
2023-02-06T07:14:30.491Z,1.43
2023-02-06T07:15:30.449Z,1.43
2023-02-06T07:16:30.445Z,1.36
2023-02-06T07:17:30.366Z,1.46
2023-02-06T07:18:30.309Z,1.60
2023-02-06T07:19:30.264Z,1.49
2023-02-06T07:20:30.207Z,1.52
2023-02-06T07:21:30.166Z,1.38
2023-02-06T07:22:30.119Z,1.39
2023-02-06T07:23:30.092Z,1.60
2023-02-06T07:24:30.017Z,1.52
2023-02-06T07:25:30.083Z,1.57
2023-02-06T07:26:29.931Z,1.60
2023-02-06T07:27:29.890Z,1.67
2023-02-06T07:28:29.885Z,1.61
2023-02-06T07:29:29.838Z,1.67
2023-02-06T07:30:29.757Z,1.57
2023-02-06T07:31:29.730Z,1.60
2023-02-06T07:32:29.654Z,1.57
2023-02-06T07:33:29.612Z,1.64
2023-02-06T07:34:29.576Z,1.61
2023-02-06T07:35:29.519Z,1.72
2023-02-06T07:36:29.466Z,1.60
2023-02-06T07:37:29.424Z,1.60
2023-02-06T07:38:29.382Z,1.75
2023-02-06T07:39:29.340Z,1.75
2023-02-06T07:40:39.646Z,1.74
2023-02-06T07:41:29.238Z,1.74
2023-02-06T07:42:29.192Z,1.79
2023-02-06T07:43:29.148Z,1.67
2023-02-06T07:44:29.100Z,1.82
2023-02-06T07:45:29.065Z,1.83
2023-02-06T07:46:29.007Z,1.81
2023-02-06T07:47:28.966Z,1.83
2023-02-06T07:48:28.917Z,1.92
2023-02-06T07:49:28.890Z,1.89
2023-02-06T07:50:28.824Z,1.89
2023-02-06T07:51:28.789Z,1.98
2023-02-06T07:52:28.730Z,1.92
2023-02-06T07:53:28.704Z,1.98
2023-02-06T07:54:28.638Z,2.00
2023-02-06T07:55:28.601Z,1.95
2023-02-06T07:56:28.546Z,2.05
2023-02-06T07:57:28.516Z,1.90
2023-02-06T07:58:28.456Z,1.92
2023-02-06T07:59:28.426Z,1.88
2023-02-06T08:00:28.367Z,2.04
2023-02-06T08:01:28.345Z,2.12
2023-02-06T08:02:28.270Z,2.11
2023-02-06T08:03:28.234Z,2.09
2023-02-06T08:04:28.252Z,2.07
2023-02-06T08:05:28.152Z,2.05
2023-02-06T08:06:28.092Z,2.09
2023-02-06T08:07:28.047Z,2.09
2023-02-06T08:08:28.008Z,2.19
2023-02-06T08:09:27.966Z,2.25
2023-02-06T08:10:27.929Z,2.14
2023-02-06T08:11:27.896Z,2.19
2023-02-06T08:12:27.819Z,2.29
2023-02-06T08:13:27.775Z,2.36
2023-02-06T08:14:27.735Z,2.32
2023-02-06T08:15:27.684Z,2.37
2023-02-06T08:16:27.711Z,2.45
2023-02-06T08:17:27.609Z,2.47
2023-02-06T08:18:27.554Z,2.53
2023-02-06T08:19:27.528Z,2.56
2023-02-06T08:20:27.456Z,2.63
2023-02-06T08:21:27.433Z,2.51
2023-02-06T08:22:27.363Z,2.53
2023-02-06T08:23:27.348Z,2.61
2023-02-06T08:24:27.272Z,2.62
2023-02-06T08:25:27.250Z,2.65
2023-02-06T08:26:27.182Z,2.66
2023-02-06T08:27:27.149Z,2.59
2023-02-06T08:28:27.094Z,2.65
2023-02-06T08:29:27.067Z,2.68
2023-02-06T08:30:27.023Z,2.61
2023-02-06T08:31:27.063Z,2.61
2023-02-06T08:32:26.921Z,2.59
2023-02-06T08:33:26.870Z,2.61
2023-02-06T08:34:26.831Z,2.76
2023-02-06T08:35:26.790Z,2.76
2023-02-06T08:36:26.748Z,2.66
2023-02-06T08:37:26.689Z,2.79
2023-02-06T08:38:26.644Z,2.84
2023-02-06T08:39:26.614Z,2.73
2023-02-06T08:40:26.565Z,2.76
2023-02-06T08:41:26.533Z,2.81
2023-02-06T08:42:26.456Z,2.94
2023-02-06T08:43:26.424Z,2.99
2023-02-06T08:44:26.375Z,2.95
2023-02-06T08:45:26.330Z,2.94
2023-02-06T08:46:26.298Z,2.98
2023-02-06T08:47:26.251Z,3.05
2023-02-06T08:48:26.192Z,3.01
2023-02-06T08:49:26.144Z,3.01
2023-02-06T08:50:26.102Z,3.05
2023-02-06T08:51:26.064Z,3.13
2023-02-06T08:52:26.006Z,3.08
2023-02-06T08:53:25.979Z,3.05
2023-02-06T08:54:25.922Z,2.98
2023-02-06T08:55:25.884Z,2.98
2023-02-06T08:56:25.833Z,3.04
2023-02-06T08:57:25.789Z,3.10
2023-02-06T08:58:25.746Z,3.19
2023-02-06T08:59:25.728Z,3.26
2023-02-06T09:00:25.659Z,3.30
2023-02-06T09:01:25.638Z,3.17
2023-02-06T09:02:25.595Z,3.15
2023-02-06T09:03:25.534Z,3.19
2023-02-06T09:04:25.485Z,3.23
2023-02-06T09:05:25.447Z,3.20
2023-02-06T09:06:25.390Z,3.20
2023-02-06T09:07:25.346Z,3.28
2023-02-06T09:08:25.301Z,3.31
2023-02-06T09:09:25.273Z,3.16
2023-02-06T09:10:27.681Z,3.23
2023-02-06T09:11:25.172Z,3.10
2023-02-06T09:12:25.130Z,3.13
2023-02-06T09:13:25.087Z,3.20
2023-02-06T09:14:25.034Z,3.23
2023-02-06T09:15:24.994Z,3.25
2023-02-06T09:16:25.000Z,3.25
2023-02-06T09:17:24.922Z,3.39
2023-02-06T09:18:24.863Z,3.44
2023-02-06T09:19:24.819Z,3.46
2023-02-06T09:20:24.766Z,3.56
2023-02-06T09:21:24.746Z,3.54
2023-02-06T09:22:24.672Z,3.53
2023-02-06T09:23:24.642Z,3.72
2023-02-06T09:24:24.586Z,3.71
2023-02-06T09:25:24.550Z,3.67
2023-02-06T09:26:24.508Z,3.80
2023-02-06T09:27:24.472Z,3.89
2023-02-06T09:28:24.515Z,4.07
2023-02-06T09:29:24.374Z,4.16
2023-02-06T09:30:24.404Z,4.20
2023-02-06T09:31:24.310Z,4.24
2023-02-06T09:32:24.245Z,4.17
2023-02-06T09:33:24.188Z,4.39
2023-02-06T09:34:24.144Z,4.36
2023-02-06T09:35:24.108Z,4.38
2023-02-06T09:36:24.062Z,4.35
2023-02-06T09:37:24.020Z,4.11
2023-02-06T09:38:23.980Z,4.10
2023-02-06T09:39:23.933Z,4.07
2023-02-06T09:40:23.884Z,4.08
2023-02-06T09:41:23.848Z,4.08
2023-02-06T09:42:23.822Z,4.25
2023-02-06T09:43:23.759Z,4.18
2023-02-06T09:44:23.729Z,4.17
2023-02-06T09:45:23.661Z,4.20
2023-02-06T09:46:23.680Z,4.26
2023-02-06T09:47:23.599Z,4.43
2023-02-06T09:48:23.538Z,4.53
2023-02-06T09:49:23.524Z,4.62
2023-02-06T09:50:23.451Z,4.62
2023-02-06T09:51:23.407Z,4.57
2023-02-06T09:52:23.416Z,4.62
2023-02-06T09:53:23.322Z,4.64
2023-02-06T09:54:23.280Z,4.43
2023-02-06T09:55:23.244Z,4.34
2023-02-06T09:56:23.183Z,4.34
2023-02-06T09:57:23.153Z,4.32
2023-02-06T09:58:23.103Z,4.36
2023-02-06T09:59:23.070Z,4.31
2023-02-06T10:00:23.017Z,4.43
2023-02-06T10:01:23.037Z,4.59
2023-02-06T10:02:22.927Z,4.75
2023-02-06T10:03:22.883Z,4.88
2023-02-06T10:04:22.849Z,5.06
2023-02-06T10:05:22.802Z,5.17
2023-02-06T10:06:22.768Z,5.26
2023-02-06T10:07:22.727Z,5.22
2023-02-06T10:08:22.734Z,5.29
2023-02-06T10:09:22.630Z,5.37
2023-02-06T10:10:22.585Z,5.27
2023-02-06T10:11:22.539Z,5.19
2023-02-06T10:12:22.510Z,5.20
2023-02-06T10:13:22.465Z,5.33
2023-02-06T10:14:22.437Z,5.38
2023-02-06T10:15:22.372Z,5.32
2023-02-06T10:16:22.341Z,5.40
2023-02-06T10:17:22.287Z,5.45
2023-02-06T10:18:22.253Z,5.59
2023-02-06T10:19:22.198Z,5.62
2023-02-06T10:20:22.169Z,5.75
2023-02-06T10:21:22.135Z,5.90
2023-02-06T10:22:22.151Z,5.90
2023-02-06T10:23:22.042Z,6.03
2023-02-06T10:24:21.988Z,6.19
2023-02-06T10:25:21.944Z,6.32
2023-02-06T10:26:21.902Z,6.43
2023-02-06T10:27:21.873Z,6.55
2023-02-06T10:28:21.940Z,6.51
2023-02-06T10:29:21.777Z,6.50
2023-02-06T10:30:21.740Z,6.27
2023-02-06T10:31:21.822Z,6.33
2023-02-06T10:32:21.686Z,6.24
2023-02-06T10:33:25.554Z,6.46
2023-02-06T10:34:21.577Z,6.72
2023-02-06T10:35:21.536Z,7.04
2023-02-06T10:36:21.487Z,7.24
2023-02-06T10:37:21.462Z,7.30
2023-02-06T10:38:21.399Z,7.23
2023-02-06T10:39:21.380Z,7.41
2023-02-06T10:40:21.315Z,7.26
2023-02-06T10:41:21.288Z,7.29
2023-02-06T10:42:22.818Z,7.05
2023-02-06T10:43:21.211Z,6.96
2023-02-06T10:44:21.158Z,7.01
2023-02-06T10:45:21.155Z,7.11
2023-02-06T10:46:21.121Z,6.82
2023-02-06T10:47:21.044Z,6.57
2023-02-06T10:48:20.996Z,6.75
2023-02-06T10:49:20.967Z,6.86
2023-02-06T10:50:20.916Z,6.82
2023-02-06T10:51:20.895Z,6.87
2023-02-06T10:52:20.829Z,7.00
2023-02-06T10:53:20.803Z,7.12
2023-02-06T10:54:20.748Z,7.00
2023-02-06T10:55:20.714Z,6.90
2023-02-06T10:56:20.664Z,6.71
2023-02-06T10:57:20.661Z,6.64
2023-02-06T10:58:20.587Z,6.71
2023-02-06T10:59:20.552Z,6.71
2023-02-06T11:00:20.504Z,6.78
2023-02-06T11:01:26.480Z,6.87
2023-02-06T11:02:20.498Z,6.83
2023-02-06T11:03:20.384Z,6.79
2023-02-06T11:04:20.344Z,6.71
2023-02-06T11:05:20.308Z,6.53
2023-02-06T11:06:20.269Z,6.48
2023-02-06T11:07:20.321Z,6.33
2023-02-06T11:08:20.183Z,6.19
2023-02-06T11:09:20.138Z,6.21
2023-02-06T11:10:20.122Z,6.32
2023-02-06T11:11:20.049Z,6.16
2023-02-06T11:12:20.018Z,6.28
2023-02-06T11:13:19.999Z,6.35
2023-02-06T11:14:19.929Z,6.53
2023-02-06T11:15:19.898Z,6.58
2023-02-06T11:16:19.936Z,6.87
2023-02-06T11:17:29.133Z,7.51
2023-02-06T11:18:19.773Z,7.48
2023-02-06T11:19:19.721Z,7.44
2023-02-06T11:20:19.684Z,7.44
2023-02-06T11:21:19.640Z,7.48
2023-02-06T11:22:19.601Z,7.57
2023-02-06T11:23:19.559Z,7.44
2023-02-06T11:24:19.535Z,7.29
2023-02-06T11:25:19.476Z,7.32
2023-02-06T11:26:19.440Z,7.26
2023-02-06T11:27:19.398Z,6.96
2023-02-06T11:28:19.398Z,6.91
2023-02-06T11:29:19.311Z,6.73
2023-02-06T11:30:19.282Z,6.79
2023-02-06T11:31:19.274Z,6.81
2023-02-06T11:32:19.192Z,6.79
2023-02-06T11:33:19.143Z,6.87
2023-02-06T11:34:19.114Z,6.81
2023-02-06T11:35:19.062Z,6.83
2023-02-06T11:36:19.035Z,6.69
2023-02-06T11:37:18.983Z,6.63
2023-02-06T11:38:18.938Z,6.38
2023-02-06T11:39:18.932Z,6.42
2023-02-06T11:40:18.893Z,6.42
2023-02-06T11:41:18.824Z,6.24
2023-02-06T11:42:18.786Z,6.38
2023-02-06T11:43:18.735Z,6.46
2023-02-06T11:44:18.693Z,6.50
2023-02-06T11:45:18.648Z,6.76
2023-02-06T11:46:18.717Z,6.78
2023-02-06T11:47:18.574Z,6.73
2023-02-06T11:48:18.528Z,6.71
2023-02-06T11:49:18.481Z,6.81
2023-02-06T11:50:18.441Z,7.08
2023-02-06T11:51:18.397Z,7.27
2023-02-06T11:52:18.368Z,7.24
2023-02-06T11:53:18.317Z,7.41
2023-02-06T11:54:18.292Z,7.63
2023-02-06T11:55:18.236Z,7.84
2023-02-06T11:56:18.217Z,8.07
2023-02-06T11:57:18.148Z,8.02
2023-02-06T11:58:18.128Z,7.96
2023-02-06T11:59:18.067Z,7.94
2023-02-06T12:00:18.030Z,8.02
2023-02-06T12:01:17.987Z,7.73
2023-02-06T12:02:18.014Z,7.62
2023-02-06T12:03:18.034Z,7.76
2023-02-06T12:04:17.887Z,7.41
2023-02-06T12:05:17.824Z,7.55
2023-02-06T12:06:17.785Z,7.50
2023-02-06T12:07:17.745Z,7.42
2023-02-06T12:08:17.717Z,7.45
2023-02-06T12:09:17.663Z,7.54
2023-02-06T12:10:17.654Z,7.57
2023-02-06T12:11:17.595Z,7.45
2023-02-06T12:12:17.543Z,7.45
2023-02-06T12:13:17.502Z,7.34
2023-02-06T12:14:19.224Z,7.39
2023-02-06T12:15:45.983Z,7.44
2023-02-06T12:16:17.424Z,7.30
2023-02-06T12:17:17.343Z,7.32
2023-02-06T12:18:17.309Z,7.39
2023-02-06T12:19:17.258Z,7.48
2023-02-06T12:20:17.232Z,7.24
2023-02-06T12:21:17.184Z,7.41
2023-02-06T12:22:17.147Z,7.34
2023-02-06T12:23:17.111Z,7.21
2023-02-06T12:24:17.061Z,7.14
2023-02-06T12:25:17.014Z,6.75
2023-02-06T12:26:16.986Z,6.39
2023-02-06T12:27:16.933Z,6.25
2023-02-06T12:28:16.968Z,6.19
2023-02-06T12:29:16.853Z,6.19
2023-02-06T12:30:16.817Z,6.45
2023-02-06T12:31:16.868Z,6.53
2023-02-06T12:32:16.828Z,6.50
2023-02-06T12:33:16.680Z,6.60
2023-02-06T12:34:16.644Z,6.68
2023-02-06T12:35:16.597Z,6.73
2023-02-06T12:36:16.558Z,6.73
2023-02-06T12:37:16.532Z,6.81
2023-02-06T12:38:16.486Z,6.72
2023-02-06T12:39:17.674Z,6.58
2023-02-06T12:40:16.390Z,6.63
2023-02-06T12:41:16.357Z,6.54
2023-02-06T12:42:16.309Z,6.69
2023-02-06T12:43:16.280Z,6.78
2023-02-06T12:44:16.228Z,6.83
2023-02-06T12:45:16.176Z,6.82
2023-02-06T12:46:16.330Z,6.93
2023-02-06T12:47:16.092Z,6.90
2023-02-06T12:48:16.080Z,7.07
2023-02-06T12:49:16.025Z,7.07
2023-02-06T12:50:16.007Z,7.09
2023-02-06T12:51:15.937Z,6.91
2023-02-06T12:52:15.887Z,6.90
2023-02-06T12:53:15.841Z,6.89
2023-02-06T12:54:15.822Z,6.89
2023-02-06T12:55:15.758Z,6.93
2023-02-06T12:56:15.722Z,7.04
2023-02-06T12:57:15.683Z,7.09
2023-02-06T12:58:15.634Z,7.09
2023-02-06T12:59:15.593Z,6.86
2023-02-06T13:00:15.560Z,6.89
2023-02-06T13:01:28.582Z,6.83
2023-02-06T13:02:15.670Z,6.71
2023-02-06T13:03:15.432Z,6.78
2023-02-06T13:04:15.386Z,6.87
2023-02-06T13:05:15.356Z,6.83
2023-02-06T13:06:15.306Z,6.69
2023-02-06T13:07:15.262Z,6.83
2023-02-06T13:08:15.228Z,6.78
2023-02-06T13:09:15.182Z,6.76
2023-02-06T13:10:15.149Z,6.82
2023-02-06T13:11:15.089Z,6.71
2023-02-06T13:12:15.062Z,6.72
2023-02-06T13:13:15.020Z,6.71
2023-02-06T13:14:14.979Z,6.69
2023-02-06T13:15:14.931Z,6.76
2023-02-06T13:16:14.944Z,6.69